LTBA

Atatürk International Airport

Istanbul, Turkey
TAF LTBA 182240Z 1900/2006 21012KT CAVOK BECMG 1902/1905 SCT035 BKN100 TEMPO 1910/1914 -SHRA BKN025 BKN080 BECMG 1912/1915 03010KT TEMPO 1918/1922 -SHRA BKN025 BKN080 BECMG 1922/2001 09008KT
Issued Valid From Valid To
Jan-18 @ 22:40 UTC
(4 hours ago)
Jan-19 @ 00:00 UTC
(2 hours ago)
Jan-20 @ 06:00 UTC
(-1 days ago)
Expired Click to View Jan-19 @ 00:00 to Jan-19 @ 02:00
TAF LTBA 182240Z 1900/2006 21012KT CAVOK
Wind Visibility Clouds Conditions
210° at 12 knots 10,000+ meters
  • No significant clouds
Becoming Jan-19 @ 02:00 to Jan-19 @ 12:00
BECMG 1902/1905 SCT035 BKN100
Wind Visibility Clouds Conditions
210° at 12 knots 10,000+ meters
  • Scattered at 3,500' AGL
  • Broken at 10,000' AGL
Temporary Jan-19 @ 10:00 to Jan-19 @ 14:00
TEMPO 1910/1914 -SHRA BKN025 BKN080
Clouds Conditions
  • Broken at 2,500' AGL
  • Broken at 8,000' AGL
  • Light Rain
Becoming Jan-19 @ 12:00 to Jan-19 @ 22:00
BECMG 1912/1915 03010KT
Wind Visibility Clouds Conditions
30° at 10 knots 10,000+ meters
  • Scattered at 3,500' AGL
  • Broken at 10,000' AGL
Temporary Jan-19 @ 18:00 to Jan-19 @ 22:00
TEMPO 1918/1922 -SHRA BKN025 BKN080
Clouds Conditions
  • Broken at 2,500' AGL
  • Broken at 8,000' AGL
  • Light Rain
Becoming Jan-19 @ 22:00 to Jan-20 @ 06:00
BECMG 1922/2001 09008KT
Wind Visibility Clouds Conditions
90° at 8 knots 10,000+ meters
  • Scattered at 3,500' AGL
  • Broken at 10,000' AGL
TAF LTBA 182240Z 1900/2006 21012KT CAVOK BECMG 1902/1905 SCT035 BKN100 TEMPO 1910/1914 -SHRA BKN025 BKN080 BECMG 1912/1915 03010KT TEMPO 1918/1922 -SHRA BKN025 BKN080 BECMG 1922/2001 09008KT
Issued Jan-18 @ 22:40 UTC
(4 hours ago)
Valid From Jan-19 @ 00:00 UTC
(2 hours ago)
Valid To Jan-20 @ 06:00 UTC
(-1 days ago)
Jan-19 @ 00:00 - Jan-19 @ 02:00
Wind Visibility
210° at 12 knots 10,000+ meters
Clouds
  • No significant clouds
Conditions
Becoming Jan-19 @ 02:00 - Jan-19 @ 12:00
Wind Visibility
210° at 12 knots 10,000+ meters
Clouds
  • Scattered at 3,500' AGL
  • Broken at 10,000' AGL
Conditions
Temporary Jan-19 @ 10:00 - Jan-19 @ 14:00
Clouds
  • Broken at 2,500' AGL
  • Broken at 8,000' AGL
Conditions
  • Light Rain
Becoming Jan-19 @ 12:00 - Jan-19 @ 22:00
Wind Visibility
30° at 10 knots 10,000+ meters
Clouds
  • Scattered at 3,500' AGL
  • Broken at 10,000' AGL
Conditions
Temporary Jan-19 @ 18:00 - Jan-19 @ 22:00
Clouds
  • Broken at 2,500' AGL
  • Broken at 8,000' AGL
Conditions
  • Light Rain
Becoming Jan-19 @ 22:00 - Jan-20 @ 06:00
Wind Visibility
90° at 8 knots 10,000+ meters
Clouds
  • Scattered at 3,500' AGL
  • Broken at 10,000' AGL
Conditions